Etusivu
METAR-TAF:

METAR-TAF

Lentoasemat :

Knoxville Municipal Airport

Knoxville, Iowa, Yhdysvallat

Leveyspiiri: 41-18N, Pituuspiiri: 093-07W, korkeus merenpinnasta: 283 m

Tämänhetkinen sää

Tämä raportti tehtiin 6 tuntia ja 31 minuuttia sitten, kello 16.55 UTC
Tuuli 16 kn pohjoisesta puuskistuen 25 kn:hen
Lämpötila -7°C
Kosteus 67%
Ilmanpaine 1033 hPa
Näkyvyys: 16.1 km
Hajonneita pilviä 2600 ft:n korkeudessa
Pilvistä 3100 ft:n korkeudessa

METAR: KOXV 111655Z AUTO 35016G25KT 10SM BKN026 OVC031 M07/M12 A3049 RMK AO2

Aika: 17:26 (23:26 UTC)


TAF: puuttuu

Säähavainnot ja -ennusteet yli 4000 lentoasemalta (METAR- ja TAF-raportit).

Käytössä olevat sääasemat on merkitty karttaan keltaisilla ja punaisilla pisteillä.

Aseta hiiri pisteen päälle nähdäksesi sääaseman nimen.

Klikkaa sitten nähdäksesi säähavainnot ja -ennusteet.

Kartan vaihtaminen: klikkaa mustalla rastilla varustettuja vihreitä pisteitä, niin voit zoomata sisään; viivalla varustettua vihreää pistettä, niin voit zoomata ulos tai vihreitä nuolia, niin pääset viereisille kartoille.


METAR-TAF: